createdAt,value
2023-03-15T00:01:46.845Z,8.10
2023-03-15T00:04:15.363Z,8.30
2023-03-15T00:06:45.073Z,9.20
2023-03-15T00:09:13.568Z,8.80
2023-03-15T00:11:45.724Z,8.00
2023-03-15T00:14:14.308Z,9.10
2023-03-15T00:16:43.404Z,8.50
2023-03-15T00:19:12.097Z,7.80
2023-03-15T00:21:43.545Z,8.90
2023-03-15T00:24:11.818Z,8.10
2023-03-15T00:26:41.123Z,7.70
2023-03-15T00:29:10.122Z,6.10
2023-03-15T00:31:39.833Z,11.30
2023-03-15T00:34:08.205Z,7.70
2023-03-15T00:36:36.692Z,8.70
2023-03-15T00:39:05.994Z,13.60
2023-03-15T00:41:34.886Z,7.50
2023-03-15T00:44:06.239Z,8.30
2023-03-15T00:46:35.287Z,8.00
2023-03-15T00:49:03.918Z,9.30
2023-03-15T00:51:37.725Z,9.10
2023-03-15T00:54:06.105Z,12.00
2023-03-15T00:56:37.660Z,9.40
2023-03-15T00:59:08.102Z,8.10
2023-03-15T01:01:36.590Z,8.60
2023-03-15T01:04:06.743Z,8.00
2023-03-15T01:06:35.077Z,9.10
2023-03-15T01:09:04.240Z,10.70
2023-03-15T01:14:03.902Z,8.30
2023-03-15T01:16:34.535Z,9.60
2023-03-15T01:19:03.426Z,11.80
2023-03-15T01:21:32.011Z,12.20
2023-03-15T01:24:00.904Z,10.60
2023-03-15T01:26:29.693Z,8.80
2023-03-15T01:28:58.483Z,10.90
2023-03-15T01:31:29.233Z,10.30
2023-03-15T01:33:58.477Z,7.60
2023-03-15T01:36:29.360Z,9.70
2023-03-15T01:38:58.249Z,9.00
2023-03-15T01:41:33.294Z,9.70
2023-03-15T01:44:01.568Z,8.10
2023-03-15T01:46:34.803Z,12.60
2023-03-15T01:49:25.999Z,10.90
2023-03-15T01:52:18.317Z,10.30
2023-03-15T01:55:15.864Z,13.00
2023-03-15T01:57:57.682Z,9.90
2023-03-15T02:00:28.023Z,7.90
2023-03-15T02:03:09.187Z,11.60
2023-03-15T02:05:46.373Z,14.80
2023-03-15T02:08:20.591Z,10.50
2023-03-15T02:10:52.198Z,12.20
2023-03-15T02:13:22.987Z,8.60
2023-03-15T02:15:53.767Z,9.70
2023-03-15T02:18:37.153Z,9.00
2023-03-15T02:21:14.961Z,13.10
2023-03-15T02:23:44.664Z,8.30
2023-03-15T02:26:48.894Z,8.70
2023-03-15T02:29:17.986Z,11.20
2023-03-15T02:31:46.508Z,13.90
2023-03-15T02:34:15.360Z,8.90
2023-03-15T02:36:43.944Z,10.00
2023-03-15T02:39:16.891Z,9.90
2023-03-15T02:41:54.388Z,10.30
2023-03-15T02:44:36.021Z,14.20
2023-03-15T02:47:07.783Z,12.00
2023-03-15T02:49:39.557Z,12.30
2023-03-15T02:52:09.978Z,8.20
2023-03-15T02:54:39.583Z,8.10
2023-03-15T02:57:13.397Z,9.30
2023-03-15T02:59:43.219Z,10.30
2023-03-15T03:02:13.855Z,11.10
2023-03-15T03:04:45.903Z,9.00
2023-03-15T03:07:14.385Z,10.10
2023-03-15T03:09:51.677Z,8.50
2023-03-15T03:12:20.877Z,13.80
2023-03-15T03:14:53.352Z,18.40
2023-03-15T03:17:25.115Z,10.50
2023-03-15T03:19:53.798Z,11.60
2023-03-15T03:22:27.298Z,10.10
2023-03-15T03:24:56.451Z,7.30
2023-03-15T03:27:25.591Z,9.20
2023-03-15T03:29:54.491Z,10.50
2023-03-15T03:32:22.909Z,10.50
2023-03-15T03:34:55.752Z,9.70
2023-03-15T03:37:24.644Z,9.20
2023-03-15T03:40:08.586Z,12.10
2023-03-15T03:42:37.479Z,9.60
2023-03-15T03:45:07.373Z,8.60
2023-03-15T03:47:39.362Z,12.10
2023-03-15T03:50:08.804Z,12.80
2023-03-15T03:52:37.875Z,11.10
2023-03-15T03:55:10.405Z,15.00
2023-03-15T03:57:38.927Z,10.70
2023-03-15T04:00:10.337Z,15.20
2023-03-15T04:04:35.263Z,13.00
2023-03-15T04:07:04.390Z,12.00
2023-03-15T04:09:38.720Z,17.50
2023-03-15T04:12:10.613Z,12.90
2023-03-15T04:14:42.740Z,10.80
2023-03-15T04:17:12.865Z,11.90
2023-03-15T04:19:47.125Z,12.30
2023-03-15T04:22:19.358Z,9.60
2023-03-15T04:28:04.860Z,10.50
2023-03-15T04:30:59.265Z,12.00
2023-03-15T04:33:41.150Z,12.40
2023-03-15T04:36:27.360Z,13.40
2023-03-15T04:39:15.294Z,13.40
2023-03-15T04:41:50.710Z,10.20
2023-03-15T04:44:45.439Z,9.00
2023-03-15T04:47:24.877Z,7.00
2023-03-15T04:50:07.354Z,8.70
2023-03-15T04:52:49.800Z,9.20
2023-03-15T04:55:47.673Z,12.40
2023-03-15T04:58:38.898Z,10.90
2023-03-15T05:01:30.737Z,10.50
2023-03-15T05:04:20.125Z,8.40
2023-03-15T05:07:04.969Z,9.00
2023-03-15T05:09:52.080Z,10.30
2023-03-15T05:12:40.428Z,15.00
2023-03-15T05:15:47.415Z,14.60
2023-03-15T05:18:35.971Z,12.00
2023-03-15T05:21:28.663Z,11.10
2023-03-15T05:24:20.149Z,10.10
2023-03-15T05:26:55.798Z,9.60
2023-03-15T05:29:57.351Z,10.70
2023-03-15T05:32:45.095Z,12.00
2023-03-15T05:35:32.747Z,11.90
2023-03-15T05:38:33.560Z,13.50
2023-03-15T05:41:24.084Z,9.30
2023-03-15T05:44:23.366Z,8.40
2023-03-15T05:47:10.696Z,10.80
2023-03-15T05:49:50.950Z,11.60
2023-03-15T05:52:37.354Z,11.60
2023-03-15T05:55:24.884Z,11.40
2023-03-15T05:58:13.028Z,12.30
2023-03-15T06:01:04.759Z,11.60
2023-03-15T06:03:47.134Z,14.40
2023-03-15T06:06:19.751Z,11.70
2023-03-15T06:08:48.130Z,9.90
2023-03-15T06:11:18.347Z,12.20
2023-03-15T06:13:47.345Z,13.30
2023-03-15T06:16:35.021Z,13.60
2023-03-15T06:19:04.790Z,14.30
2023-03-15T06:21:33.579Z,11.50
2023-03-15T06:24:06.787Z,14.90
2023-03-15T06:26:36.177Z,10.10
2023-03-15T06:29:05.072Z,12.70
2023-03-15T06:31:34.276Z,10.80
2023-03-15T06:34:05.210Z,10.10
2023-03-15T06:39:08.427Z,9.80
2023-03-15T06:41:37.011Z,12.60
2023-03-15T06:44:10.102Z,12.00
2023-03-15T06:46:40.941Z,10.70
2023-03-15T06:49:12.803Z,11.60
2023-03-15T06:51:45.384Z,11.00
2023-03-15T06:54:13.763Z,12.40
2023-03-15T06:56:42.555Z,10.70
2023-03-15T06:59:12.673Z,9.80
2023-03-15T07:01:42.450Z,9.60
2023-03-15T07:04:11.279Z,9.50
2023-03-15T07:06:40.794Z,11.80
2023-03-15T07:09:09.179Z,11.70
2023-03-15T07:11:37.860Z,13.70
2023-03-15T07:14:06.442Z,11.60
2023-03-15T07:16:35.235Z,13.40
2023-03-15T07:19:04.134Z,11.20
2023-03-15T07:21:33.732Z,10.00
2023-03-15T07:24:02.316Z,10.70
2023-03-15T07:26:30.800Z,8.80
2023-03-15T07:28:59.898Z,11.40
2023-03-15T07:31:28.490Z,10.80
2023-03-15T07:33:57.684Z,11.90
2023-03-15T07:36:26.677Z,8.30
2023-03-15T07:38:55.464Z,9.70
2023-03-15T07:41:26.300Z,9.60
2023-03-15T07:44:09.835Z,11.50
2023-03-15T07:46:38.776Z,10.20
2023-03-15T07:49:07.634Z,10.10
2023-03-15T07:51:36.226Z,8.80
2023-03-15T07:54:11.541Z,8.70
2023-03-15T07:56:40.839Z,10.70
2023-03-15T07:59:10.286Z,10.80
2023-03-15T08:01:39.068Z,8.00
2023-03-15T08:04:07.723Z,11.80
2023-03-15T08:06:37.036Z,11.30
2023-03-15T08:09:06.947Z,9.30
2023-03-15T08:14:10.660Z,9.00
2023-03-15T08:16:39.614Z,9.10
2023-03-15T08:21:39.183Z,9.00
2023-03-15T08:24:08.380Z,9.30
2023-03-15T08:26:38.311Z,7.50
2023-03-15T08:29:06.682Z,6.90
2023-03-15T08:31:35.284Z,12.10
2023-03-15T08:34:04.377Z,8.10
2023-03-15T08:36:40.350Z,9.00
2023-03-15T08:39:08.805Z,10.30
2023-03-15T08:41:37.902Z,7.20
2023-03-15T08:44:11.707Z,8.70
2023-03-15T08:46:40.899Z,7.20
2023-03-15T08:49:09.496Z,8.60
2023-03-15T08:51:39.005Z,11.60
2023-03-15T08:54:07.790Z,8.50
2023-03-15T08:56:42.630Z,6.00
2023-03-15T08:59:12.811Z,5.10
2023-03-15T09:01:45.043Z,7.70
2023-03-15T09:04:14.804Z,6.30
2023-03-15T09:06:44.331Z,7.60
2023-03-15T09:09:17.742Z,8.10
2023-03-15T09:11:46.327Z,5.50
2023-03-15T09:14:14.795Z,7.30
2023-03-15T09:16:43.447Z,8.50
2023-03-15T09:19:12.168Z,8.40
2023-03-15T09:21:41.456Z,7.10
2023-03-15T09:24:12.106Z,8.50
2023-03-15T09:26:42.533Z,5.10
2023-03-15T09:29:12.661Z,6.10
2023-03-15T09:31:42.060Z,6.20
2023-03-15T09:34:10.747Z,6.20
2023-03-15T09:36:39.344Z,8.00
2023-03-15T09:39:08.739Z,8.10
2023-03-15T09:41:45.230Z,6.20
2023-03-15T09:44:21.380Z,9.10
2023-03-15T09:46:53.183Z,7.60
2023-03-15T09:49:59.606Z,9.50
2023-03-15T09:52:51.029Z,7.90
2023-03-15T09:55:22.167Z,7.50
2023-03-15T09:57:58.303Z,6.60
2023-03-15T10:00:45.861Z,5.60
2023-03-15T10:03:40.039Z,5.80
2023-03-15T10:06:23.084Z,8.90
2023-03-15T10:08:57.491Z,8.00
2023-03-15T10:12:04.825Z,8.50
2023-03-15T10:14:40.040Z,8.50
2023-03-15T10:17:12.490Z,7.70
2023-03-15T10:19:52.246Z,5.50
2023-03-15T10:22:31.891Z,7.10
2023-03-15T10:25:11.746Z,6.60
2023-03-15T10:27:43.889Z,8.60
2023-03-15T10:30:26.318Z,5.30
2023-03-15T10:33:23.395Z,5.20
2023-03-15T10:35:56.120Z,4.30
2023-03-15T10:38:27.914Z,6.80
2023-03-15T10:40:59.538Z,6.40
2023-03-15T10:43:37.399Z,4.50
2023-03-15T10:46:14.275Z,6.10
2023-03-15T10:48:53.941Z,7.40
2023-03-15T10:51:24.840Z,6.80
2023-03-15T10:54:07.731Z,9.20
2023-03-15T10:56:49.155Z,7.40
2023-03-15T11:01:48.463Z,6.60
2023-03-15T11:04:24.362Z,3.80
2023-03-15T11:06:58.545Z,4.60
2023-03-15T11:09:27.337Z,6.60
2023-03-15T11:12:04.113Z,5.00
2023-03-15T11:14:37.306Z,5.70
2023-03-15T11:17:07.848Z,6.10
2023-03-15T11:19:39.701Z,4.60
2023-03-15T11:22:13.314Z,8.80
2023-03-15T11:24:42.051Z,8.80
2023-03-15T11:27:12.629Z,9.50
2023-03-15T11:29:52.172Z,6.60
2023-03-15T11:32:23.180Z,5.10
2023-03-15T11:35:08.615Z,7.40
2023-03-15T11:37:47.321Z,5.60
2023-03-15T11:40:22.790Z,5.30
2023-03-15T11:42:55.962Z,4.90
2023-03-15T11:45:37.276Z,4.80
2023-03-15T11:48:41.077Z,6.40
2023-03-15T11:51:11.596Z,4.70
2023-03-15T11:54:04.547Z,4.90
2023-03-15T11:56:45.012Z,5.60
2023-03-15T11:59:25.701Z,5.90
2023-03-15T12:02:01.744Z,7.30
2023-03-15T12:04:33.504Z,8.50
2023-03-15T12:07:07.005Z,5.70
2023-03-15T12:09:38.659Z,5.90
2023-03-15T12:12:24.921Z,6.30
2023-03-15T12:15:19.197Z,5.30
2023-03-15T12:17:47.839Z,4.80
2023-03-15T12:20:18.477Z,5.70
2023-03-15T12:23:18.191Z,7.20
2023-03-15T12:26:05.822Z,5.00
2023-03-15T12:28:50.807Z,6.90
2023-03-15T12:31:19.228Z,5.60
2023-03-15T12:33:50.106Z,5.90
2023-03-15T12:36:36.320Z,5.00
2023-03-15T12:39:14.209Z,5.80
2023-03-15T12:41:50.282Z,7.80
2023-03-15T12:44:19.166Z,7.10
2023-03-15T12:46:47.549Z,6.00
2023-03-15T12:49:18.899Z,7.30
2023-03-15T12:52:04.923Z,5.80
2023-03-15T12:54:39.659Z,6.40
2023-03-15T12:57:13.632Z,5.20
2023-03-15T12:59:55.696Z,5.90
2023-03-15T13:02:49.796Z,5.50
2023-03-15T13:05:25.378Z,4.60
2023-03-15T13:07:57.542Z,6.10
2023-03-15T13:10:59.923Z,6.20
2023-03-15T13:13:28.305Z,7.60
2023-03-15T13:16:38.590Z,6.00
2023-03-15T13:19:24.223Z,4.70
2023-03-15T13:22:22.538Z,7.00
2023-03-15T13:25:10.067Z,5.90
2023-03-15T13:27:44.455Z,6.10
2023-03-15T13:30:52.765Z,9.10
2023-03-15T13:33:22.213Z,8.90
2023-03-15T13:35:55.698Z,6.30
2023-03-15T13:38:31.086Z,8.00
2023-03-15T13:41:02.209Z,7.70
2023-03-15T13:43:36.439Z,5.80
2023-03-15T13:46:09.658Z,4.40
2023-03-15T13:48:41.689Z,5.30
2023-03-15T13:51:29.323Z,4.80
2023-03-15T13:54:02.117Z,4.30
2023-03-15T13:56:49.174Z,4.80
2023-03-15T13:59:18.233Z,4.40
2023-03-15T14:01:46.790Z,5.10
2023-03-15T14:04:17.566Z,6.70
2023-03-15T14:06:48.692Z,4.50
2023-03-15T14:09:24.449Z,4.90
2023-03-15T14:12:05.653Z,5.50
2023-03-15T14:14:39.179Z,6.60
2023-03-15T14:17:18.169Z,5.60
2023-03-15T14:19:53.574Z,6.30
2023-03-15T14:22:22.219Z,6.10
2023-03-15T14:24:57.645Z,6.40
2023-03-15T14:27:27.250Z,5.70
2023-03-15T14:30:00.438Z,10.30
2023-03-15T14:32:34.924Z,6.10
2023-03-15T14:35:30.393Z,4.70
2023-03-15T14:38:08.824Z,5.50
2023-03-15T14:40:38.834Z,4.50
2023-03-15T14:45:37.935Z,4.30
2023-03-15T14:48:11.150Z,5.20
2023-03-15T14:50:41.763Z,4.60
2023-03-15T14:53:14.863Z,3.90
2023-03-15T14:55:49.282Z,4.20
2023-03-15T14:58:21.675Z,5.60
2023-03-15T15:00:54.253Z,4.90
2023-03-15T15:03:30.502Z,4.50
2023-03-15T15:05:59.676Z,4.40
2023-03-15T15:08:28.287Z,9.40
2023-03-15T15:10:57.181Z,4.90
2023-03-15T15:13:29.663Z,5.70
2023-03-15T15:18:31.315Z,5.00
2023-03-15T15:21:11.185Z,6.50
2023-03-15T15:23:57.023Z,7.60
2023-03-15T15:26:28.834Z,5.40
2023-03-15T15:28:58.055Z,5.60
2023-03-15T15:31:27.447Z,5.50
2023-03-15T15:34:04.127Z,5.10
2023-03-15T15:36:38.544Z,5.80
2023-03-15T15:39:29.987Z,7.60
2023-03-15T15:41:58.343Z,6.40
2023-03-15T15:44:27.250Z,6.00
2023-03-15T15:46:56.335Z,7.30
2023-03-15T15:49:24.928Z,7.70
2023-03-15T15:51:54.530Z,6.60
2023-03-15T15:54:26.193Z,6.80
2023-03-15T15:56:56.832Z,7.40
2023-03-15T15:59:26.078Z,7.30
2023-03-15T16:02:02.955Z,8.50
2023-03-15T16:04:33.229Z,9.10
2023-03-15T16:07:02.684Z,10.00
2023-03-15T16:09:32.230Z,10.90
2023-03-15T16:12:03.191Z,12.00
2023-03-15T16:14:34.027Z,11.90
2023-03-15T16:17:10.290Z,15.30
2023-03-15T16:22:17.702Z,16.80
2023-03-15T16:24:53.776Z,15.60
2023-03-15T16:27:23.594Z,14.00
2023-03-15T16:29:53.496Z,18.00
2023-03-15T16:32:36.870Z,17.50
2023-03-15T16:35:18.122Z,19.70
2023-03-15T16:37:47.726Z,17.70
2023-03-15T16:40:22.356Z,20.00
2023-03-15T16:42:53.400Z,16.60
2023-03-15T16:45:22.602Z,19.20
2023-03-15T16:47:56.809Z,17.90
2023-03-15T16:50:26.229Z,18.00
2023-03-15T16:52:55.893Z,17.70
2023-03-15T16:55:26.058Z,21.50
2023-03-15T16:57:56.080Z,16.60
2023-03-15T17:00:25.914Z,17.40
2023-03-15T17:02:55.127Z,17.80
2023-03-15T17:05:32.442Z,17.30
2023-03-15T17:08:01.173Z,18.20
2023-03-15T17:13:02.845Z,24.90
2023-03-15T17:15:32.459Z,18.60
2023-03-15T17:18:03.408Z,18.50
2023-03-15T17:20:34.750Z,19.40
2023-03-15T17:23:04.804Z,19.70
2023-03-15T17:25:34.138Z,19.60
2023-03-15T17:28:05.015Z,16.70
2023-03-15T17:30:35.329Z,21.50
2023-03-15T17:33:05.281Z,18.20
2023-03-15T17:35:44.017Z,20.10
2023-03-15T17:38:18.076Z,19.10
2023-03-15T17:40:48.885Z,20.00
2023-03-15T17:43:18.034Z,22.50
2023-03-15T17:45:48.062Z,18.70
2023-03-15T17:48:17.047Z,22.30
2023-03-15T17:50:47.163Z,24.40
2023-03-15T17:53:19.028Z,16.30
2023-03-15T17:55:48.222Z,22.80
2023-03-15T17:58:24.125Z,24.80
2023-03-15T18:00:54.961Z,22.40
2023-03-15T18:05:52.208Z,21.10
2023-03-15T18:08:34.709Z,22.00
2023-03-15T18:11:04.237Z,25.70
2023-03-15T18:13:33.616Z,22.10
2023-03-15T18:16:14.734Z,23.00
2023-03-15T18:18:43.318Z,28.60
2023-03-15T18:21:14.527Z,20.60
2023-03-15T18:23:47.720Z,20.50
2023-03-15T18:26:16.409Z,22.30
2023-03-15T18:28:45.091Z,25.10
2023-03-15T18:31:20.881Z,24.70
2023-03-15T18:33:49.623Z,23.40
2023-03-15T18:36:19.251Z,24.70
2023-03-15T18:38:49.003Z,28.60
2023-03-15T18:41:20.845Z,25.00
2023-03-15T18:43:50.413Z,24.30
2023-03-15T18:46:22.919Z,24.80
2023-03-15T18:48:54.369Z,28.20
2023-03-15T18:51:28.355Z,28.00
2023-03-15T18:53:56.942Z,25.60
2023-03-15T18:56:28.398Z,24.90
2023-03-15T18:58:56.981Z,25.10
2023-03-15T19:01:26.536Z,25.30
2023-03-15T19:03:55.887Z,17.80
2023-03-15T19:06:31.357Z,25.80
2023-03-15T19:09:00.226Z,25.50
2023-03-15T19:11:31.891Z,26.60
2023-03-15T19:14:03.540Z,25.80
2023-03-15T19:16:32.966Z,18.40
2023-03-15T19:19:01.630Z,27.00
2023-03-15T19:21:32.469Z,28.40
2023-03-15T19:24:01.154Z,23.50
2023-03-15T19:26:30.457Z,24.00
2023-03-15T19:28:59.651Z,23.70
2023-03-15T19:31:28.089Z,27.40
2023-03-15T19:33:59.499Z,25.20
2023-03-15T19:36:28.080Z,24.20
2023-03-15T19:38:57.678Z,24.40
2023-03-15T19:43:56.383Z,26.50
2023-03-15T19:46:27.783Z,24.70
2023-03-15T19:48:56.317Z,26.90
2023-03-15T19:51:25.131Z,24.60
2023-03-15T19:53:55.943Z,24.20
2023-03-15T19:56:24.325Z,22.20
2023-03-15T19:58:57.346Z,23.00
2023-03-15T20:01:26.048Z,26.40
2023-03-15T20:03:54.564Z,24.30
2023-03-15T20:06:23.370Z,25.00
2023-03-15T20:08:52.170Z,25.00
2023-03-15T20:11:25.391Z,24.60
2023-03-15T20:13:54.041Z,22.40
2023-03-15T20:16:22.592Z,21.80
2023-03-15T20:18:56.143Z,23.80
2023-03-15T20:21:24.721Z,23.30
2023-03-15T20:23:53.196Z,20.70
2023-03-15T20:26:24.134Z,22.20
2023-03-15T20:28:52.921Z,24.90
2023-03-15T20:31:23.722Z,23.90
2023-03-15T20:36:22.671Z,26.30
2023-03-15T20:38:51.051Z,23.60
2023-03-15T20:41:23.838Z,24.40
2023-03-15T20:43:52.522Z,25.80
2023-03-15T20:46:22.721Z,24.00
2023-03-15T20:48:53.186Z,24.40
2023-03-15T20:51:22.181Z,21.70
2023-03-15T20:53:51.259Z,23.40
2023-03-15T20:56:20.049Z,17.10
2023-03-15T20:58:48.959Z,27.50
2023-03-15T21:01:22.547Z,24.10
2023-03-15T21:03:54.800Z,25.50
2023-03-15T21:06:23.702Z,23.40
2023-03-15T21:08:53.108Z,22.90
2023-03-15T21:11:21.897Z,25.20
2023-03-15T21:13:50.478Z,24.10
2023-03-15T21:16:21.437Z,24.20
2023-03-15T21:18:52.665Z,24.90
2023-03-15T21:21:24.942Z,26.00
2023-03-15T21:23:54.642Z,22.80
2023-03-15T21:26:23.330Z,23.60
2023-03-15T21:28:57.631Z,25.30
2023-03-15T21:31:26.262Z,25.50
2023-03-15T21:33:56.454Z,23.80
2023-03-15T21:36:24.832Z,27.60
2023-03-15T21:38:53.209Z,24.80
2023-03-15T21:41:22.944Z,21.80
2023-03-15T21:43:51.723Z,22.10
2023-03-15T21:46:20.261Z,21.70
2023-03-15T21:48:48.962Z,25.90
2023-03-15T21:51:17.664Z,28.50
2023-03-15T21:53:51.779Z,21.30
2023-03-15T21:56:20.159Z,27.70
2023-03-15T21:58:48.549Z,24.90
2023-03-15T22:01:17.384Z,24.90
2023-03-15T22:03:46.636Z,22.50
2023-03-15T22:06:16.961Z,26.20
2023-03-15T22:08:45.650Z,25.70
2023-03-15T22:11:14.126Z,22.00
2023-03-15T22:13:43.224Z,24.60
2023-03-15T22:16:12.320Z,25.40
2023-03-15T22:18:41.114Z,22.50
2023-03-15T22:21:11.579Z,22.30
2023-03-15T22:28:41.703Z,24.30
2023-03-15T22:31:11.478Z,23.20
2023-03-15T22:33:40.929Z,25.00
2023-03-15T22:36:11.147Z,25.80
2023-03-15T22:38:39.832Z,25.10
2023-03-15T22:41:10.466Z,24.60
2023-03-15T22:46:09.306Z,23.00
2023-03-15T22:48:38.168Z,24.60
2023-03-15T22:51:10.129Z,26.20
2023-03-15T22:53:39.128Z,21.50
2023-03-15T22:56:07.717Z,23.20
2023-03-15T22:58:36.811Z,26.30
2023-03-15T23:01:06.968Z,23.00
2023-03-15T23:03:37.682Z,23.40
2023-03-15T23:06:06.770Z,22.80
2023-03-15T23:08:35.556Z,21.40
2023-03-15T23:11:04.348Z,22.50
2023-03-15T23:13:32.931Z,22.60
2023-03-15T23:16:04.457Z,23.70
2023-03-15T23:18:34.505Z,23.90
2023-03-15T23:21:11.913Z,22.60
2023-03-15T23:23:43.348Z,24.10
2023-03-15T23:26:13.166Z,22.60
2023-03-15T23:28:44.006Z,18.90
2023-03-15T23:31:12.649Z,23.50
2023-03-15T23:33:41.172Z,25.40
2023-03-15T23:36:09.669Z,23.60
2023-03-15T23:38:38.252Z,20.90
2023-03-15T23:41:09.392Z,21.80
2023-03-15T23:43:38.701Z,22.80
2023-03-15T23:46:07.520Z,22.10
2023-03-15T23:48:37.405Z,22.00
2023-03-15T23:51:08.817Z,21.80
2023-03-15T23:53:42.052Z,21.80
2023-03-15T23:56:11.247Z,23.60
2023-03-15T23:58:39.626Z,20.10
